createdAt,value
2023-02-13T00:03:49.799Z,7.70
2023-02-13T00:08:41.890Z,7.80
2023-02-13T00:13:36.727Z,7.70
2023-02-13T00:18:36.945Z,7.60
2023-02-13T00:23:31.394Z,7.60
2023-02-13T00:28:23.903Z,7.70
2023-02-13T00:33:16.163Z,7.70
2023-02-13T00:38:08.201Z,7.70
2023-02-13T00:43:00.283Z,7.60
2023-02-13T00:47:52.386Z,7.60
2023-02-13T00:52:46.048Z,7.60
2023-02-13T00:57:38.160Z,7.50
2023-02-13T01:02:30.212Z,7.50
2023-02-13T01:07:22.264Z,7.50
2023-02-13T01:12:14.315Z,7.50
2023-02-13T01:17:08.692Z,7.50
2023-02-13T01:22:00.726Z,7.60
2023-02-13T01:26:52.701Z,7.60
2023-02-13T01:31:46.240Z,7.50
2023-02-13T01:36:38.949Z,7.60
2023-02-13T01:41:35.031Z,7.60
2023-02-13T01:46:34.564Z,7.60
2023-02-13T01:51:33.780Z,7.60
2023-02-13T01:56:56.726Z,7.60
2023-02-13T02:01:50.393Z,7.60
2023-02-13T02:14:00.609Z,7.60
2023-02-13T02:19:04.255Z,7.60
2023-02-13T02:24:08.760Z,7.60
2023-02-13T02:29:18.572Z,7.50
2023-02-13T02:34:33.932Z,7.50
2023-02-13T02:39:26.138Z,7.60
2023-02-13T02:44:35.612Z,7.70
2023-02-13T02:49:48.978Z,7.70
2023-02-13T02:55:09.163Z,7.80
2023-02-13T03:00:31.363Z,7.80
2023-02-13T03:06:04.065Z,7.90
2023-02-13T03:11:14.554Z,7.90
2023-02-13T03:16:25.474Z,7.90
2023-02-13T03:22:06.984Z,7.80
2023-02-13T03:27:06.675Z,7.80
2023-02-13T03:32:06.569Z,7.80
2023-02-13T03:37:26.299Z,7.80
2023-02-13T03:42:40.873Z,7.80
2023-02-13T03:47:32.996Z,7.80
2023-02-13T03:52:58.194Z,7.80
2023-02-13T03:58:12.196Z,7.80
2023-02-13T04:03:28.827Z,7.80
2023-02-13T04:08:20.884Z,7.80
2023-02-13T04:13:19.123Z,7.80
2023-02-13T04:18:24.726Z,7.70
2023-02-13T04:23:16.859Z,7.70
2023-02-13T04:28:09.048Z,7.80
2023-02-13T04:33:01.207Z,7.70
2023-02-13T04:37:53.268Z,7.80
2023-02-13T04:42:50.840Z,7.70
2023-02-13T04:47:49.580Z,7.70
2023-02-13T04:52:41.633Z,7.70
2023-02-13T04:57:33.782Z,7.70
2023-02-13T05:02:25.786Z,7.70
2023-02-13T05:07:17.814Z,7.60
2023-02-13T05:12:09.714Z,7.60
2023-02-13T05:17:01.716Z,7.60
2023-02-13T05:22:12.113Z,7.60
2023-02-13T05:27:05.286Z,7.60
2023-02-13T05:31:58.559Z,7.50
2023-02-13T05:36:51.042Z,7.60
2023-02-13T05:41:45.344Z,7.50
2023-02-13T05:46:39.360Z,7.60
2023-02-13T05:51:31.927Z,7.60
2023-02-13T05:56:24.392Z,7.60
2023-02-13T06:01:16.419Z,7.50
2023-02-13T06:06:08.669Z,7.50
2023-02-13T06:11:00.940Z,7.50
2023-02-13T06:15:53.317Z,7.50
2023-02-13T06:20:45.379Z,7.50
2023-02-13T06:25:37.830Z,7.50
2023-02-13T06:30:30.627Z,7.50
2023-02-13T06:35:22.703Z,7.50
2023-02-13T06:40:15.907Z,7.50
2023-02-13T06:45:08.340Z,7.50
2023-02-13T06:50:03.003Z,7.60
2023-02-13T06:54:56.215Z,7.60
2023-02-13T06:59:48.336Z,7.60
2023-02-13T07:04:40.407Z,7.60
2023-02-13T07:09:33.182Z,7.70
2023-02-13T07:14:25.168Z,7.70
2023-02-13T07:19:17.273Z,7.70
2023-02-13T07:24:09.332Z,7.80
2023-02-13T07:29:11.487Z,7.90
2023-02-13T07:34:04.059Z,7.90
2023-02-13T07:38:56.146Z,8.00
2023-02-13T07:43:48.198Z,8.10
2023-02-13T07:48:41.388Z,8.10
2023-02-13T07:53:33.403Z,8.20
2023-02-13T07:58:25.458Z,8.10
2023-02-13T08:03:20.044Z,8.20
2023-02-13T08:08:12.030Z,8.20
2023-02-13T08:13:05.071Z,8.30
2023-02-13T08:17:57.133Z,8.20
2023-02-13T08:22:49.072Z,8.30
2023-02-13T08:27:41.168Z,8.30
2023-02-13T08:32:44.950Z,8.40
2023-02-13T08:37:45.117Z,8.50
2023-02-13T08:42:39.176Z,8.60
2023-02-13T08:47:31.219Z,8.60
2023-02-13T08:52:23.342Z,8.70
2023-02-13T08:57:15.439Z,8.70
2023-02-13T09:02:09.153Z,8.90
2023-02-13T09:07:02.350Z,9.10
2023-02-13T09:11:57.832Z,9.20
2023-02-13T09:16:49.837Z,9.30
2023-02-13T09:21:41.873Z,9.40
2023-02-13T09:26:33.901Z,9.60
2023-02-13T09:31:29.110Z,9.70
2023-02-13T09:36:24.523Z,9.70
2023-02-13T09:41:22.397Z,9.80
2023-02-13T09:46:26.172Z,10.00
2023-02-13T09:51:21.249Z,10.30
2023-02-13T09:56:17.158Z,10.50
2023-02-13T10:01:30.843Z,10.80
2023-02-13T10:06:32.415Z,11.00
2023-02-13T10:11:56.642Z,11.00
2023-02-13T10:16:54.801Z,11.20
2023-02-13T10:21:55.292Z,11.20
2023-02-13T10:26:48.323Z,11.20
2023-02-13T10:31:42.829Z,11.30
2023-02-13T10:36:40.739Z,11.50
2023-02-13T10:41:41.001Z,11.80
2023-02-13T10:46:58.719Z,12.10
2023-02-13T10:51:56.491Z,12.40
2023-02-13T10:57:06.151Z,12.50
2023-02-13T11:02:11.881Z,12.50
2023-02-13T11:07:11.403Z,12.50
2023-02-13T11:12:32.610Z,12.10
2023-02-13T11:17:27.131Z,12.00
2023-02-13T11:22:34.769Z,11.80
2023-02-13T11:27:40.192Z,11.70
2023-02-13T11:32:35.073Z,11.60
2023-02-13T11:37:29.840Z,11.50
2023-02-13T11:42:34.680Z,11.40
2023-02-13T11:47:43.178Z,11.20
2023-02-13T11:52:36.564Z,11.30
2023-02-13T11:57:37.541Z,11.50
2023-02-13T12:02:31.530Z,11.60
2023-02-13T12:07:27.592Z,11.70
2023-02-13T12:12:29.097Z,11.80
2023-02-13T12:17:31.794Z,12.00
2023-02-13T12:22:39.632Z,12.20
2023-02-13T12:27:55.049Z,12.30
2023-02-13T12:33:08.781Z,12.40
2023-02-13T12:38:18.912Z,12.40
2023-02-13T12:43:33.377Z,12.30
2023-02-13T12:49:11.763Z,12.30
2023-02-13T12:54:28.078Z,12.30
2023-02-13T12:59:33.271Z,12.20
2023-02-13T13:04:52.473Z,12.10
2023-02-13T13:10:08.776Z,11.90
2023-02-13T13:15:07.776Z,11.90
2023-02-13T13:20:14.585Z,12.00
2023-02-13T13:25:29.735Z,11.80
2023-02-13T13:30:36.056Z,11.70
2023-02-13T13:35:29.893Z,11.50
2023-02-13T13:40:24.656Z,11.50
2023-02-13T13:45:22.793Z,11.60
2023-02-13T13:50:41.994Z,11.60
2023-02-13T13:55:56.921Z,11.70
2023-02-13T14:01:17.652Z,11.60
2023-02-13T14:06:17.581Z,11.50
2023-02-13T14:11:41.360Z,11.50
2023-02-13T14:16:45.227Z,11.30
2023-02-13T14:21:37.316Z,11.20
2023-02-13T14:26:32.494Z,11.10
2023-02-13T14:31:39.501Z,11.10
2023-02-13T14:36:38.077Z,11.00
2023-02-13T14:41:43.466Z,10.70
2023-02-13T14:46:41.196Z,10.50
2023-02-13T14:51:40.667Z,10.40
2023-02-13T14:56:33.528Z,10.30
2023-02-13T15:01:34.614Z,10.20
2023-02-13T15:06:28.083Z,10.20
2023-02-13T15:11:43.109Z,10.00
2023-02-13T15:16:35.299Z,9.90
2023-02-13T15:21:33.418Z,9.80
2023-02-13T15:26:28.789Z,9.70
2023-02-13T15:31:25.081Z,9.60
2023-02-13T15:36:26.241Z,9.50
2023-02-13T15:41:31.723Z,9.30
2023-02-13T15:46:33.070Z,9.20
2023-02-13T15:51:31.841Z,9.10
2023-02-13T15:56:24.363Z,9.00
2023-02-13T16:01:17.658Z,8.90
2023-02-13T16:06:18.773Z,8.90
2023-02-13T16:11:27.897Z,8.80
2023-02-13T16:16:20.020Z,8.80
2023-02-13T16:21:12.160Z,8.70
2023-02-13T16:26:11.840Z,8.60
2023-02-13T16:31:05.050Z,8.50
2023-02-13T16:36:00.144Z,8.40
2023-02-13T16:40:52.329Z,8.40
2023-02-13T16:45:44.453Z,8.40
2023-02-13T16:50:36.770Z,8.30
2023-02-13T16:55:31.683Z,8.40
2023-02-13T17:00:27.732Z,8.30
2023-02-13T17:05:21.603Z,8.20
2023-02-13T17:10:34.241Z,8.30
2023-02-13T17:15:28.408Z,8.30
2023-02-13T17:20:23.663Z,8.20
2023-02-13T17:25:23.373Z,8.10
2023-02-13T17:30:21.713Z,8.10
2023-02-13T17:35:15.101Z,8.10
2023-02-13T17:40:08.016Z,8.10
2023-02-13T17:45:00.248Z,8.10
2023-02-13T17:49:59.178Z,8.00
2023-02-13T17:54:55.390Z,8.10
2023-02-13T17:59:47.546Z,8.10
2023-02-13T18:04:39.581Z,8.10
2023-02-13T18:09:31.654Z,8.10
2023-02-13T18:14:23.653Z,8.00
2023-02-13T18:19:15.909Z,8.00
2023-02-13T18:24:08.738Z,7.90
2023-02-13T18:29:00.804Z,7.90
2023-02-13T18:33:53.116Z,7.90
2023-02-13T18:38:45.111Z,7.90
2023-02-13T18:43:38.338Z,7.90
2023-02-13T18:48:32.112Z,7.90
2023-02-13T18:53:24.536Z,7.90
2023-02-13T18:58:17.825Z,7.90
2023-02-13T19:03:09.830Z,7.80
2023-02-13T19:08:02.024Z,7.80
2023-02-13T19:12:54.034Z,7.90
2023-02-13T19:17:46.047Z,7.80
2023-02-13T19:22:38.060Z,7.70
2023-02-13T19:27:30.098Z,7.70
2023-02-13T19:32:22.098Z,7.80
2023-02-13T19:37:14.222Z,7.80
2023-02-13T19:42:06.238Z,7.70
2023-02-13T19:46:58.272Z,7.70
2023-02-13T19:51:50.360Z,7.70
2023-02-13T19:56:43.551Z,7.70
2023-02-13T20:01:35.560Z,7.60
2023-02-13T20:06:32.448Z,7.60
2023-02-13T20:11:24.400Z,7.70
2023-02-13T20:16:17.256Z,7.80
2023-02-13T20:21:11.250Z,7.70
2023-02-13T20:26:08.997Z,7.60
2023-02-13T20:31:01.573Z,7.70
2023-02-13T20:35:53.791Z,7.60
2023-02-13T20:40:45.826Z,7.60
2023-02-13T20:45:37.858Z,7.70
2023-02-13T20:50:30.260Z,7.60
2023-02-13T20:55:22.289Z,7.60
2023-02-13T21:00:14.802Z,7.60
2023-02-13T21:05:06.955Z,7.60
2023-02-13T21:09:59.020Z,7.60
2023-02-13T21:14:51.121Z,7.60
2023-02-13T21:19:43.190Z,7.60
2023-02-13T21:24:35.200Z,7.60
2023-02-13T21:29:27.272Z,7.60
2023-02-13T21:34:19.424Z,7.60
2023-02-13T21:39:12.898Z,7.60
2023-02-13T21:44:04.961Z,7.60
2023-02-13T21:49:07.767Z,7.50
2023-02-13T21:54:01.227Z,7.40
2023-02-13T21:58:53.724Z,7.50
2023-02-13T22:03:46.103Z,7.50
2023-02-13T22:08:38.267Z,7.40
2023-02-13T22:13:30.450Z,7.40
2023-02-13T22:18:22.406Z,7.40
2023-02-13T22:23:14.365Z,7.50
2023-02-13T22:28:06.622Z,7.40
2023-02-13T22:32:59.139Z,7.40
2023-02-13T22:37:51.096Z,7.30
2023-02-13T22:42:43.241Z,7.30
2023-02-13T22:47:35.254Z,7.30
2023-02-13T22:52:27.202Z,7.30
2023-02-13T22:57:19.196Z,7.40
2023-02-13T23:02:12.747Z,7.30
2023-02-13T23:07:05.960Z,7.30
2023-02-13T23:12:19.713Z,7.30
2023-02-13T23:17:30.376Z,7.30
2023-02-13T23:22:22.280Z,7.30
2023-02-13T23:27:15.946Z,7.20
2023-02-13T23:32:08.128Z,7.10
2023-02-13T23:37:00.183Z,7.20
2023-02-13T23:41:52.276Z,7.20
2023-02-13T23:46:44.492Z,7.20
2023-02-13T23:51:36.547Z,7.30
2023-02-13T23:56:28.654Z,7.20
